Time;durP1;ratioP1;P1;durP2;ratioP2;P2;SDS_P1;SDS_P2;PMS_P1;PMS_P2;Temp;Humidity;BMP_temperature;BMP_pressure;BME280_temperature;BME280_humidity;BME280_pressure;Samples;Min_cycle;Max_cycle;Signal;HPM_P1;HPM_P2
2022/09/21 00:00:05;;;;;;;2.63;1.10;;;9.70;99.90;;;;;;5034471;28;20209;-38
2022/09/21 00:02:31;;;;;;;3.47;1.50;;;9.60;99.90;;;;;;5033068;28;20060;-38
2022/09/21 00:04:56;;;;;;;5.57;1.70;;;9.50;99.90;;;;;;5035901;28;20049;-38
2022/09/21 00:07:22;;;;;;;1.00;0.52;;;9.50;99.90;;;;;;5031829;28;20080;-38
2022/09/21 00:09:48;;;;;;;1.23;0.60;;;9.50;99.90;;;;;;5033619;28;20533;-47
2022/09/21 00:12:14;;;;;;;1.55;0.47;;;9.50;99.90;;;;;;5030548;28;20116;-37
2022/09/21 00:14:41;;;;;;;1.38;0.50;;;9.50;99.90;;;;;;5037790;28;20072;-38
2022/09/21 00:17:06;;;;;;;3.33;0.88;;;9.40;99.90;;;;;;5036595;28;20598;-39
2022/09/21 00:19:34;;;;;;;5.68;0.82;;;9.40;99.90;;;;;;5034480;28;20037;-36
2022/09/21 00:21:59;;;;;;;1.50;0.40;;;9.30;99.90;;;;;;5039986;28;20588;-37
2022/09/21 00:24:26;;;;;;;2.28;0.80;;;9.20;99.90;;;;;;5039253;28;20041;-37
2022/09/21 00:26:52;;;;;;;1.90;0.75;;;9.20;99.90;;;;;;5039199;28;20053;-36
2022/09/21 00:29:18;;;;;;;1.52;0.57;;;9.20;99.90;;;;;;5041013;28;20410;-36
2022/09/21 00:31:43;;;;;;;2.13;0.60;;;9.10;99.90;;;;;;5043192;28;20045;-38
2022/09/21 00:34:09;;;;;;;2.15;0.70;;;9.10;99.90;;;;;;5036003;28;20072;-39
2022/09/21 00:36:35;;;;;;;2.38;0.75;;;9.10;99.90;;;;;;5034959;28;20472;-38
2022/09/21 00:39:01;;;;;;;2.00;0.50;;;9.10;99.90;;;;;;5037472;28;20479;-39
2022/09/21 00:41:30;;;;;;;1.20;0.50;;;9.10;99.90;;;;;;5019629;28;20115;-37
2022/09/21 00:44:24;;;;;;;1.10;0.50;;;9.00;99.90;;;;;;5035272;28;20064;-37
2022/09/21 00:46:52;;;;;;;1.77;0.60;;;9.00;99.90;;;;;;5042033;28;20049;-37
2022/09/21 00:49:20;;;;;;;4.45;0.60;;;9.00;99.90;;;;;;5042296;28;20052;-35
2022/09/21 00:51:46;;;;;;;1.75;0.65;;;9.00;99.90;;;;;;5036517;28;20116;-39
2022/09/21 00:54:19;;;;;;;1.77;0.70;;;8.90;99.90;;;;;;5021946;28;20616;-37
2022/09/21 00:56:45;;;;;;;2.55;0.80;;;9.00;99.90;;;;;;5027108;28;20112;-37
2022/09/21 00:59:14;;;;;;;1.85;0.63;;;9.00;99.90;;;;;;5037130;28;20095;-38
2022/09/21 01:01:41;;;;;;;1.55;0.60;;;8.90;99.90;;;;;;5040972;28;20533;-38
2022/09/21 01:04:09;;;;;;;7.18;0.70;;;9.00;99.90;;;;;;5027529;28;20406;-37
2022/09/21 01:06:37;;;;;;;2.03;0.85;;;9.00;99.90;;;;;;5039558;28;20037;-38
2022/09/21 01:09:04;;;;;;;1.13;0.60;;;8.90;99.90;;;;;;5041467;28;20052;-37
2022/09/21 01:11:52;;;;;;;1.92;0.77;;;8.90;99.90;;;;;;5036634;28;20038;-36
2022/09/21 01:14:45;;;;;;;2.92;0.93;;;8.90;99.90;;;;;;5040837;28;20045;-38
2022/09/21 01:17:16;;;;;;;;;;;8.90;99.90;;;;;;5040396;28;20131;-38
2022/09/21 01:20:02;;;;;;;1.90;0.73;;;8.90;99.90;;;;;;5044205;28;19967;-37
2022/09/21 01:22:49;;;;;;;4.53;1.17;;;8.80;99.90;;;;;;5031652;28;20069;-38
2022/09/21 01:25:43;;;;;;;1.30;0.73;;;8.80;99.90;;;;;;5033186;28;20053;-39
2022/09/21 01:28:21;;;;;;;2.13;0.88;;;8.80;99.90;;;;;;5037968;28;20510;-37
2022/09/21 01:30:49;;;;;;;4.75;0.93;;;8.80;99.90;;;;;;5043371;28;20049;-37
2022/09/21 01:33:23;;;;;;;3.83;0.70;;;8.80;99.90;;;;;;5041371;28;21289;-37
2022/09/21 01:36:08;;;;;;;2.35;0.80;;;8.80;99.90;;;;;;5043562;28;20076;-37
2022/09/21 01:38:49;;;;;;;2.35;0.63;;;8.80;99.90;;;;;;5035972;28;20084;-37
2022/09/21 01:41:20;;;;;;;1.40;0.50;;;8.80;99.90;;;;;;5033490;28;20067;-37
2022/09/21 01:43:56;;;;;;;2.58;0.70;;;8.80;99.90;;;;;;5034735;28;20045;-38
2022/09/21 01:46:27;;;;;;;1.50;0.50;;;8.70;99.90;;;;;;5038933;28;20045;-50
2022/09/21 01:48:58;;;;;;;1.38;0.40;;;8.70;99.90;;;;;;5039098;28;20056;-38
2022/09/21 01:51:27;;;;;;;0.82;0.30;;;8.70;99.90;;;;;;5031305;28;20617;-38
2022/09/21 01:53:58;;;;;;;1.58;0.52;;;8.60;99.90;;;;;;5032640;28;20084;-36
2022/09/21 01:56:32;;;;;;;2.25;0.50;;;8.60;99.90;;;;;;5039790;28;20041;-37
2022/09/21 01:59:36;;;;;;;1.45;0.43;;;8.60;99.90;;;;;;5034580;28;20049;-37
2022/09/21 02:02:12;;;;;;;4.20;0.60;;;8.60;99.90;;;;;;4969354;28;20042;-38
2022/09/21 02:04:38;;;;;;;0.90;0.40;;;8.50;99.90;;;;;;4961364;28;20552;-37
2022/09/21 02:07:05;;;;;;;0.80;0.30;;;8.50;99.90;;;;;;4994464;28;20143;-37
2022/09/21 02:09:31;;;;;;;2.05;0.40;;;8.40;99.90;;;;;;5037926;28;20036;-38
2022/09/21 02:11:57;;;;;;;1.98;0.50;;;8.40;99.90;;;;;;5032000;28;20565;-37
2022/09/21 02:14:24;;;;;;;1.40;0.22;;;8.30;99.90;;;;;;5038194;28;20033;-37
2022/09/21 02:17:06;;;;;;;1.10;0.30;;;8.30;99.90;;;;;;5033457;28;20064;-36
2022/09/21 02:19:45;;;;;;;4.22;0.50;;;8.20;99.90;;;;;;5038564;28;20426;-38
2022/09/21 02:22:17;;;;;;;2.47;0.50;;;8.20;99.90;;;;;;5030007;28;20080;-38
2022/09/21 02:24:52;;;;;;;1.77;0.40;;;8.20;99.90;;;;;;5022542;28;20041;-38
2022/09/21 02:27:30;;;;;;;1.50;0.40;;;8.20;99.90;;;;;;5038444;28;20037;-38
2022/09/21 02:30:00;;;;;;;1.58;0.40;;;8.10;99.90;;;;;;5039357;28;20090;-37
2022/09/21 02:32:34;;;;;;;2.05;0.45;;;8.10;99.90;;;;;;5033205;28;20796;-38
2022/09/21 02:35:15;;;;;;;1.67;0.30;;;8.10;99.90;;;;;;5036311;28;20033;-38
2022/09/21 02:37:57;;;;;;;0.98;0.30;;;8.10;99.90;;;;;;5039330;28;20033;-37
2022/09/21 02:40:29;;;;;;;1.83;0.40;;;8.10;99.90;;;;;;5032492;28;20076;-38
2022/09/21 02:43:02;;;;;;;2.70;0.65;;;8.00;99.90;;;;;;5034067;28;20084;-37
2022/09/21 02:45:47;;;;;;;1.00;0.30;;;8.00;99.90;;;;;;5042432;28;20564;-37
2022/09/21 02:48:19;;;;;;;1.35;0.30;;;8.00;99.90;;;;;;5036559;28;20072;-37
2022/09/21 02:50:52;;;;;;;1.00;0.30;;;7.90;99.90;;;;;;5037820;28;20470;-36
2022/09/21 02:53:21;;;;;;;;;;;7.90;99.90;;;;;;5030886;28;20521;-37
2022/09/21 02:55:49;;;;;;;1.15;0.50;;;7.90;99.90;;;;;;5032337;28;19933;-37
2022/09/21 02:58:17;;;;;;;1.25;0.40;;;7.90;99.90;;;;;;5037941;28;20112;-37
2022/09/21 03:00:42;;;;;;;1.65;0.40;;;7.80;99.90;;;;;;5037651;28;20045;-37
2022/09/21 03:03:19;;;;;;;2.10;0.30;;;7.80;99.90;;;;;;5044126;28;20491;-40
2022/09/21 03:05:53;;;;;;;1.63;0.28;;;7.80;99.90;;;;;;5040327;28;20572;-37
2022/09/21 03:08:19;;;;;;;0.60;0.20;;;7.80;99.90;;;;;;5039639;28;20128;-38
2022/09/21 03:10:48;;;;;;;0.88;0.30;;;7.80;99.90;;;;;;5034766;28;20080;-37
2022/09/21 03:13:13;;;;;;;5.15;0.57;;;7.80;99.90;;;;;;5033767;28;20044;-38
2022/09/21 03:15:40;;;;;;;0.65;0.30;;;7.80;99.90;;;;;;5031103;28;20041;-37
2022/09/21 03:18:10;;;;;;;1.10;0.30;;;7.70;99.90;;;;;;5033927;28;20116;-38
2022/09/21 03:20:44;;;;;;;1.48;0.35;;;7.70;99.90;;;;;;5026495;28;20468;-37
2022/09/21 03:23:11;;;;;;;0.75;0.22;;;7.70;99.90;;;;;;5023189;28;20128;-37
2022/09/21 03:25:37;;;;;;;2.17;0.40;;;7.70;99.90;;;;;;5038675;28;20092;-39
2022/09/21 03:28:03;;;;;;;1.67;0.30;;;7.70;99.90;;;;;;5029408;28;20391;-39
2022/09/21 03:30:30;;;;;;;1.85;0.30;;;7.70;99.90;;;;;;5035523;28;20494;-38
2022/09/21 03:32:56;;;;;;;0.82;0.30;;;7.60;99.90;;;;;;5032559;28;20045;-38
2022/09/21 03:35:25;;;;;;;1.20;0.30;;;7.60;99.90;;;;;;5017621;28;20086;-38
2022/09/21 03:37:51;;;;;;;0.40;0.20;;;7.60;99.90;;;;;;5035745;28;20056;-39
2022/09/21 03:40:18;;;;;;;1.30;0.43;;;7.50;99.90;;;;;;5032658;28;20072;-37
2022/09/21 03:42:44;;;;;;;1.17;0.40;;;7.50;99.90;;;;;;5044592;28;20048;-36
2022/09/21 03:45:11;;;;;;;3.58;0.40;;;7.50;99.90;;;;;;5033298;28;20044;-38
2022/09/21 03:47:37;;;;;;;0.98;0.55;;;7.50;99.90;;;;;;5031277;28;20049;-38
2022/09/21 03:50:05;;;;;;;5.40;0.47;;;7.40;99.90;;;;;;5037562;28;20029;-38
2022/09/21 03:52:31;;;;;;;5.00;0.30;;;7.40;99.90;;;;;;5036584;28;20072;-37
2022/09/21 03:54:57;;;;;;;0.90;0.40;;;7.30;99.90;;;;;;5040084;28;20073;-36
2022/09/21 03:57:23;;;;;;;2.50;0.45;;;7.30;99.90;;;;;;5037865;28;20123;-38
2022/09/21 03:59:49;;;;;;;2.30;0.30;;;7.30;99.90;;;;;;5038458;28;20048;-38
2022/09/21 04:02:15;;;;;;;3.55;0.30;;;7.30;99.90;;;;;;5043760;28;20080;-38
2022/09/21 04:04:41;;;;;;;2.08;0.32;;;7.20;99.90;;;;;;5038986;28;20076;-38
2022/09/21 04:07:07;;;;;;;1.30;0.35;;;7.20;99.90;;;;;;5041120;28;20076;-37
2022/09/21 04:09:33;;;;;;;0.82;0.30;;;7.20;99.90;;;;;;5034994;28;20095;-39
2022/09/21 04:11:58;;;;;;;3.00;0.52;;;7.20;99.90;;;;;;5037577;28;20662;-41
2022/09/21 04:14:24;;;;;;;2.65;0.40;;;7.20;99.90;;;;;;5033197;28;20048;-37
2022/09/21 04:16:50;;;;;;;1.17;0.28;;;7.20;99.90;;;;;;5032283;28;20037;-37
2022/09/21 04:19:17;;;;;;;0.88;0.30;;;7.20;99.90;;;;;;5035359;28;20112;-38
2022/09/21 04:21:43;;;;;;;1.90;0.40;;;7.10;99.90;;;;;;5037334;28;20483;-38
2022/09/21 04:24:08;;;;;;;1.48;0.40;;;7.10;99.90;;;;;;5041484;28;20048;-38
2022/09/21 04:26:35;;;;;;;2.00;0.30;;;7.10;99.90;;;;;;5037924;28;20088;-37
2022/09/21 04:29:01;;;;;;;2.53;0.60;;;7.10;99.90;;;;;;5040280;28;20063;-38
2022/09/21 04:31:28;;;;;;;0.70;0.30;;;7.10;99.90;;;;;;5001425;28;20120;-38
2022/09/21 04:33:56;;;;;;;2.03;0.45;;;7.10;99.90;;;;;;5032097;28;20056;-38
2022/09/21 04:36:23;;;;;;;1.17;0.20;;;7.10;99.90;;;;;;5041485;28;20114;-37
2022/09/21 04:38:50;;;;;;;0.63;0.25;;;7.10;99.90;;;;;;5035140;28;20040;-38
2022/09/21 04:41:16;;;;;;;1.27;0.30;;;7.00;99.90;;;;;;5042911;28;20414;-38
2022/09/21 04:43:46;;;;;;;1.10;0.30;;;7.00;99.90;;;;;;5033365;28;20499;-38
2022/09/21 04:46:15;;;;;;;3.70;0.35;;;7.00;99.90;;;;;;5038734;28;20030;-36
2022/09/21 04:48:41;;;;;;;3.22;0.40;;;7.00;99.90;;;;;;5040915;28;20041;-36
2022/09/21 04:51:08;;;;;;;1.33;0.40;;;7.00;99.90;;;;;;5039076;28;20513;-36
2022/09/21 04:53:36;;;;;;;1.50;0.30;;;7.00;99.90;;;;;;5046133;28;20375;-35
2022/09/21 04:56:03;;;;;;;1.05;0.30;;;7.00;99.90;;;;;;5036095;28;20315;-36
2022/09/21 04:58:29;;;;;;;1.95;0.47;;;7.00;99.90;;;;;;5043309;28;20042;-37
2022/09/21 05:00:55;;;;;;;1.05;0.40;;;7.00;99.90;;;;;;5035289;28;20134;-37
2022/09/21 05:03:23;;;;;;;1.58;0.30;;;7.00;99.90;;;;;;5033734;28;20060;-37
2022/09/21 05:05:52;;;;;;;1.67;0.30;;;7.00;99.90;;;;;;5038030;28;20045;-37
2022/09/21 05:10:01;;;;;;;3.38;0.50;;;6.90;99.90;;;;;;5042789;28;20037;-37
2022/09/21 05:11:08;;;;;;;1.15;0.30;;;6.90;99.90;;;;;;5039108;28;20052;-37
2022/09/21 05:13:34;;;;;;;1.33;0.52;;;6.90;99.90;;;;;;5031414;28;20553;-37
2022/09/21 05:16:00;;;;;;;1.23;0.35;;;6.90;99.90;;;;;;5041024;28;20766;-37
2022/09/21 05:18:26;;;;;;;1.23;0.30;;;6.90;99.90;;;;;;5037317;28;20044;-36
2022/09/21 05:21:00;;;;;;;1.35;0.30;;;6.90;99.90;;;;;;5024903;28;20053;-38
2022/09/21 05:23:28;;;;;;;0.70;0.30;;;6.90;99.90;;;;;;5030196;28;20057;-38
2022/09/21 05:25:54;;;;;;;2.10;0.47;;;6.90;99.90;;;;;;5034105;28;20048;-37
2022/09/21 05:28:21;;;;;;;2.15;0.30;;;6.90;99.90;;;;;;5039895;28;20037;-37
2022/09/21 05:30:55;;;;;;;3.00;0.40;;;6.90;99.90;;;;;;5031168;28;20038;-37
2022/09/21 05:33:23;;;;;;;2.70;0.73;;;7.00;99.90;;;;;;5038837;28;20696;-37
2022/09/21 05:36:12;;;;;;;3.45;0.80;;;7.00;99.90;;;;;;5031316;28;20478;-37
2022/09/21 05:38:38;;;;;;;4.95;0.95;;;7.00;99.90;;;;;;5029014;28;20085;-38
2022/09/21 05:41:05;;;;;;;7.78;1.15;;;7.10;99.90;;;;;;5039436;28;20076;-38
2022/09/21 05:43:30;;;;;;;12.88;2.40;;;7.10;99.90;;;;;;5034868;28;20069;-36
2022/09/21 05:46:16;;;;;;;8.10;1.40;;;7.10;99.90;;;;;;5037644;28;20041;-36
2022/09/21 05:49:05;;;;;;;4.40;0.90;;;7.10;99.90;;;;;;5043958;28;20506;-37
2022/09/21 05:51:34;;;;;;;21.38;2.22;;;7.10;99.90;;;;;;5036399;28;20049;-35
2022/09/21 05:54:31;;;;;;;20.00;1.80;;;7.10;99.90;;;;;;5037504;28;20095;-37
2022/09/21 05:57:23;;;;;;;33.30;2.95;;;7.10;99.90;;;;;;5037315;28;20527;-37
2022/09/21 06:00:13;;;;;;;42.92;2.45;;;7.10;99.90;;;;;;5036801;28;20044;-37
2022/09/21 06:03:12;;;;;;;7.13;1.20;;;7.10;99.90;;;;;;5022550;28;20049;-37
2022/09/21 06:05:39;;;;;;;5.22;1.30;;;7.20;99.90;;;;;;5036175;28;20048;-36
2022/09/21 06:08:04;;;;;;;6.40;1.13;;;7.20;99.90;;;;;;5029547;28;20052;-36
2022/09/21 06:10:33;;;;;;;2.55;0.70;;;7.20;99.90;;;;;;5034984;28;21644;-36
2022/09/21 06:12:59;;;;;;;2.20;0.70;;;7.30;99.90;;;;;;5031442;28;20483;-36
2022/09/21 06:15:25;;;;;;;1.63;0.73;;;7.30;99.90;;;;;;5035784;28;20048;-36
2022/09/21 06:17:51;;;;;;;2.83;0.80;;;7.40;99.90;;;;;;5031340;28;20045;-36
2022/09/21 06:20:16;;;;;;;1.95;0.70;;;7.30;99.90;;;;;;5035320;28;20045;-36
2022/09/21 06:22:42;;;;;;;2.60;0.63;;;7.40;99.90;;;;;;5032532;28;20064;-36
2022/09/21 06:25:08;;;;;;;3.53;0.90;;;7.40;99.90;;;;;;5032292;28;20056;-37
2022/09/21 06:27:34;;;;;;;3.28;0.73;;;7.40;99.90;;;;;;5034900;28;20049;-36
2022/09/21 06:29:59;;;;;;;2.42;0.98;;;7.40;99.90;;;;;;5032258;28;20088;-37
2022/09/21 06:32:25;;;;;;;2.40;0.90;;;7.40;99.90;;;;;;5038768;28;20044;-38
2022/09/21 06:34:51;;;;;;;5.25;1.70;;;7.40;99.90;;;;;;5032720;28;20056;-36
2022/09/21 06:37:17;;;;;;;5.88;1.40;;;7.40;99.90;;;;;;5032411;28;20511;-36
2022/09/21 06:39:42;;;;;;;7.20;1.45;;;7.50;99.90;;;;;;5035737;28;20392;-37
2022/09/21 06:42:08;;;;;;;3.60;1.10;;;7.50;99.90;;;;;;5031832;28;20635;-36
2022/09/21 06:44:34;;;;;;;3.85;1.00;;;7.50;99.90;;;;;;5035422;28;20036;-38
2022/09/21 06:46:59;;;;;;;4.22;1.27;;;7.60;99.90;;;;;;5030679;28;20033;-37
2022/09/21 06:49:27;;;;;;;5.68;2.88;;;7.60;99.90;;;;;;5037789;28;20061;-36
2022/09/21 06:51:53;;;;;;;3.90;1.50;;;7.70;99.90;;;;;;5039488;28;20033;-36
2022/09/21 06:54:20;;;;;;;4.93;1.80;;;7.70;99.90;;;;;;5029138;28;20061;-37
2022/09/21 06:56:45;;;;;;;2.72;1.30;;;7.70;99.90;;;;;;5032470;28;20049;-35
2022/09/21 06:59:11;;;;;;;4.68;1.60;;;7.80;99.90;;;;;;5026697;28;20041;-35
2022/09/21 07:01:37;;;;;;;2.28;1.30;;;7.80;99.90;;;;;;5029434;28;20029;-35
2022/09/21 07:04:02;;;;;;;3.33;1.33;;;7.80;99.90;;;;;;5033477;28;20557;-35
2022/09/21 07:06:28;;;;;;;3.53;1.42;;;7.90;99.90;;;;;;5034834;28;20390;-35
2022/09/21 07:08:55;;;;;;;3.33;1.60;;;7.90;99.90;;;;;;5038793;28;20048;-35
2022/09/21 07:11:22;;;;;;;4.70;1.77;;;8.00;99.90;;;;;;5031843;28;20037;-37
2022/09/21 07:13:49;;;;;;;5.78;2.13;;;8.00;99.90;;;;;;5036645;28;20103;-38
2022/09/21 07:16:15;;;;;;;2.83;1.38;;;8.10;99.90;;;;;;5034762;28;20103;-37
2022/09/21 07:18:41;;;;;;;5.63;2.13;;;8.20;99.90;;;;;;5041864;28;20041;-36
2022/09/21 07:21:09;;;;;;;4.35;1.67;;;8.30;99.90;;;;;;5034989;28;20410;-36
2022/09/21 07:23:35;;;;;;;5.28;2.30;;;8.30;99.90;;;;;;5023800;28;20396;-36
2022/09/21 07:26:06;;;;;;;6.05;2.22;;;8.40;99.90;;;;;;5036804;28;20525;-36
2022/09/21 07:28:33;;;;;;;5.32;3.00;;;8.50;99.90;;;;;;5032633;28;20029;-36
2022/09/21 07:31:04;;;;;;;6.38;2.70;;;8.60;99.90;;;;;;5033755;28;20045;-36
2022/09/21 07:33:32;;;;;;;6.75;2.72;;;8.70;99.90;;;;;;5037718;28;20030;-37
2022/09/21 07:35:59;;;;;;;5.28;2.65;;;8.80;99.90;;;;;;5038915;28;20044;-36
2022/09/21 07:38:26;;;;;;;6.93;3.00;;;8.90;99.90;;;;;;5038143;28;20120;-37
2022/09/21 07:40:52;;;;;;;5.30;2.67;;;9.00;99.90;;;;;;5040216;28;20056;-36
2022/09/21 07:43:18;;;;;;;4.68;2.70;;;9.10;99.90;;;;;;5031765;28;20406;-37
2022/09/21 07:45:53;;;;;;;4.45;2.72;;;9.20;99.90;;;;;;5048482;28;20042;-36
2022/09/21 07:48:19;;;;;;;4.70;2.47;;;9.30;99.90;;;;;;5044139;28;20044;-36
2022/09/21 07:50:45;;;;;;;5.85;2.88;;;9.40;99.90;;;;;;5038492;28;20042;-36
2022/09/21 07:53:10;;;;;;;8.73;2.72;;;9.50;99.90;;;;;;5036266;28;20028;-37
2022/09/21 07:55:36;;;;;;;5.40;3.03;;;9.60;99.90;;;;;;5038435;28;20045;-36
2022/09/21 08:00:46;;;;;;;7.10;2.70;;;9.80;99.90;;;;;;5034320;28;20045;-37
2022/09/21 08:03:12;;;;;;;6.78;1.92;;;10.00;99.90;;;;;;5036928;28;20044;-37
2022/09/21 08:05:37;;;;;;;9.85;2.78;;;10.10;99.90;;;;;;5034004;28;20033;-36
2022/09/21 08:08:03;;;;;;;7.80;2.60;;;10.20;99.90;;;;;;5030516;28;20045;-36
2022/09/21 08:10:30;;;;;;;8.45;2.30;;;10.40;99.90;;;;;;5036318;28;20049;-36
2022/09/21 08:12:56;;;;;;;5.68;2.08;;;10.50;99.90;;;;;;5038526;28;20049;-36
2022/09/21 08:15:22;;;;;;;7.28;2.17;;;10.60;99.90;;;;;;5031258;28;20664;-37
2022/09/21 08:17:49;;;;;;;12.45;2.58;;;10.70;99.90;;;;;;5032628;28;20040;-36
2022/09/21 08:20:15;;;;;;;5.30;2.33;;;10.80;99.90;;;;;;5014787;28;20046;-37
2022/09/21 08:22:40;;;;;;;6.47;3.13;;;11.00;99.90;;;;;;5034457;28;20052;-37
2022/09/21 08:25:06;;;;;;;8.77;2.25;;;11.10;99.90;;;;;;5031069;28;20136;-37
2022/09/21 08:27:35;;;;;;;3.00;1.88;;;11.20;99.90;;;;;;5029811;28;20088;-37
2022/09/21 08:30:02;;;;;;;6.68;1.77;;;11.30;99.90;;;;;;5029663;28;20073;-36
2022/09/21 08:32:28;;;;;;;5.88;2.47;;;11.40;99.90;;;;;;5028728;28;20033;-34
2022/09/21 08:34:53;;;;;;;7.70;2.38;;;11.50;99.90;;;;;;5033587;28;20044;-36
2022/09/21 08:37:20;;;;;;;5.38;2.15;;;11.70;99.90;;;;;;5035770;28;20129;-35
2022/09/21 08:39:47;;;;;;;4.18;1.58;;;11.70;99.90;;;;;;5035298;28;20388;-35
2022/09/21 08:42:27;;;;;;;7.35;2.45;;;11.80;99.90;;;;;;5041218;28;20099;-36
2022/09/21 08:45:01;;;;;;;3.85;1.35;;;12.00;99.90;;;;;;5044542;28;20036;-36
2022/09/21 08:47:44;;;;;;;5.05;1.88;;;12.10;99.90;;;;;;5037004;28;20786;-35
2022/09/21 08:50:28;;;;;;;5.57;1.50;;;12.10;99.90;;;;;;5037080;28;20037;-35
2022/09/21 08:53:00;;;;;;;4.05;1.15;;;12.30;99.90;;;;;;5035036;28;20037;-35
2022/09/21 08:55:26;;;;;;;3.92;1.52;;;12.40;99.90;;;;;;5040596;28;20043;-37
2022/09/21 08:57:52;;;;;;;4.75;1.70;;;12.50;99.90;;;;;;5033283;28;20049;-37
2022/09/21 09:00:19;;;;;;;5.32;1.30;;;12.70;99.90;;;;;;5037919;28;20037;-37
2022/09/21 09:02:44;;;;;;;4.97;1.48;;;12.80;99.90;;;;;;5034947;28;20038;-36
2022/09/21 09:05:44;;;;;;;6.10;1.52;;;12.90;99.90;;;;;;5039514;28;20473;-37
2022/09/21 09:08:12;;;;;;;4.47;1.58;;;13.00;99.90;;;;;;5037781;28;20532;-36
2022/09/21 09:11:01;;;;;;;6.00;1.50;;;13.10;99.90;;;;;;5033538;28;20052;-37
2022/09/21 09:13:54;;;;;;;5.50;1.75;;;13.20;99.90;;;;;;5035401;28;20498;-37
2022/09/21 09:16:43;;;;;;;7.35;1.35;;;13.30;99.90;;;;;;5034260;28;20037;-36
2022/09/21 09:19:08;;;;;;;4.70;1.42;;;13.40;99.90;;;;;;5041843;28;20040;-37
2022/09/21 09:21:40;;;;;;;6.57;1.38;;;13.40;99.90;;;;;;5034044;28;20045;-35
2022/09/21 09:24:15;;;;;;;4.13;1.23;;;13.50;99.90;;;;;;5034668;28;20048;-38
2022/09/21 09:26:47;;;;;;;7.80;1.33;;;13.60;99.90;;;;;;5036891;28;20106;-35
2022/09/21 09:29:28;;;;;;;6.13;1.15;;;13.70;99.90;;;;;;5033656;28;20490;-36
2022/09/21 09:31:56;;;;;;;3.72;1.15;;;13.80;99.90;;;;;;5016975;28;20051;-37
2022/09/21 09:34:33;;;;;;;4.22;0.95;;;13.90;99.90;;;;;;5037514;28;20043;-36
2022/09/21 09:37:10;;;;;;;4.82;1.40;;;14.10;99.90;;;;;;5041417;28;20068;-37
2022/09/21 09:39:36;;;;;;;7.13;1.10;;;14.20;99.90;;;;;;5033958;28;20677;-36
2022/09/21 09:42:10;;;;;;;6.22;1.02;;;14.20;99.90;;;;;;5033147;28;20041;-36
2022/09/21 09:44:54;;;;;;;4.93;0.75;;;14.40;99.90;;;;;;5042801;28;20131;-36
2022/09/21 09:47:58;;;;;;;5.00;0.80;;;14.40;99.90;;;;;;5034626;28;20660;-38
2022/09/21 09:50:29;;;;;;;4.35;0.90;;;14.50;99.90;;;;;;5032656;28;20550;-38
2022/09/21 09:53:06;;;;;;;7.45;0.70;;;14.60;99.90;;;;;;5036521;28;20544;-38
2022/09/21 09:55:42;;;;;;;6.70;0.90;;;14.70;99.90;;;;;;5035499;28;20100;-37
2022/09/21 09:58:23;;;;;;;3.28;0.50;;;14.80;99.90;;;;;;5037198;28;20517;-37
2022/09/21 10:00:52;;;;;;;7.05;0.70;;;14.90;99.50;;;;;;5037317;28;20043;-38
2022/09/21 10:03:23;;;;;;;3.58;0.70;;;15.00;99.70;;;;;;5037333;28;20542;-38
2022/09/21 10:05:49;;;;;;;3.72;0.82;;;15.10;99.60;;;;;;5035006;28;20080;-38
2022/09/21 10:08:27;;;;;;;4.20;0.70;;;15.20;98.80;;;;;;5039197;28;20514;-38
2022/09/21 10:10:53;;;;;;;6.57;0.80;;;15.20;96.50;;;;;;5034215;28;20137;-36
2022/09/21 10:13:34;;;;;;;3.30;0.63;;;15.30;96.10;;;;;;5035836;28;20091;-40
2022/09/21 10:16:04;;;;;;;4.35;0.57;;;15.40;96.20;;;;;;5036252;28;20782;-36
2022/09/21 10:18:57;;;;;;;4.00;0.70;;;15.50;96.40;;;;;;5032901;28;20053;-36
2022/09/21 10:21:37;;;;;;;3.22;0.52;;;15.40;94.70;;;;;;5024602;28;20045;-37
2022/09/21 10:24:06;;;;;;;2.55;0.52;;;15.40;95.20;;;;;;5035650;28;20080;-39
2022/09/21 10:26:54;;;;;;;2.63;0.60;;;15.50;95.10;;;;;;5037990;28;20506;-36
2022/09/21 10:29:24;;;;;;;2.33;0.77;;;15.60;94.20;;;;;;5034160;28;20068;-36
2022/09/21 10:32:00;;;;;;;3.13;0.40;;;15.60;94.40;;;;;;5037431;28;20038;-37
2022/09/21 10:34:29;;;;;;;4.88;0.65;;;15.50;93.70;;;;;;5021747;28;20073;-37
2022/09/21 10:37:00;;;;;;;4.38;0.47;;;15.30;94.00;;;;;;5038739;28;20642;-35
2022/09/21 10:39:31;;;;;;;4.83;0.60;;;15.20;94.30;;;;;;5015208;28;20041;-38
2022/09/21 10:42:10;;;;;;;3.33;0.60;;;15.00;93.90;;;;;;5040369;28;20036;-38
2022/09/21 10:44:48;;;;;;;4.70;0.70;;;14.90;94.30;;;;;;5019122;28;20565;-39
2022/09/21 10:47:14;;;;;;;3.78;0.73;;;14.80;94.10;;;;;;5017479;28;20056;-36
2022/09/21 10:49:46;;;;;;;4.25;0.50;;;14.70;94.30;;;;;;5015091;28;20044;-36
2022/09/21 10:52:12;;;;;;;2.10;0.40;;;14.90;94.70;;;;;;5040228;28;20589;-35
2022/09/21 10:54:40;;;;;;;3.58;0.40;;;15.10;94.20;;;;;;5035873;28;20539;-35
2022/09/21 10:57:15;;;;;;;4.60;0.98;;;15.40;93.60;;;;;;5039669;28;20385;-36
2022/09/21 10:59:41;;;;;;;2.53;0.35;;;15.70;92.20;;;;;;5014644;28;20041;-37
2022/09/21 11:02:28;;;;;;;2.47;0.30;;;15.80;91.70;;;;;;5033686;28;20086;-38
2022/09/21 11:05:13;;;;;;;2.95;0.30;;;16.10;90.30;;;;;;5031477;28;20069;-37
2022/09/21 11:07:45;;;;;;;2.47;0.30;;;16.20;82.30;;;;;;5035606;28;20048;-36
2022/09/21 11:10:11;;;;;;;;;;;16.40;87.00;;;;;;5037635;28;20059;-36
2022/09/21 11:12:46;;;;;;;4.03;0.65;;;16.60;84.60;;;;;;5033004;28;20386;-36
2022/09/21 11:15:34;;;;;;;4.30;0.40;;;16.80;84.00;;;;;;5031383;28;20033;-36
2022/09/21 11:18:11;;;;;;;2.78;0.47;;;16.90;85.10;;;;;;5037442;28;20425;-37
2022/09/21 11:21:03;;;;;;;2.80;0.38;;;17.00;81.90;;;;;;5016165;28;21441;-37
2022/09/21 11:23:54;;;;;;;3.40;0.30;;;17.10;80.90;;;;;;5034824;28;20528;-37
2022/09/21 11:26:29;;;;;;;3.75;0.47;;;17.20;76.60;;;;;;5038657;28;20098;-37
2022/09/21 11:29:14;;;;;;;4.88;0.47;;;17.20;75.70;;;;;;5013620;28;20048;-35
2022/09/21 11:32:06;;;;;;;1.58;0.30;;;17.20;73.70;;;;;;5030474;28;20040;-36
2022/09/21 11:34:35;;;;;;;2.08;0.50;;;17.30;64.40;;;;;;5035680;28;20494;-35
2022/09/21 11:37:15;;;;;;;3.30;1.75;;;17.30;72.40;;;;;;5030220;28;20112;-35
2022/09/21 11:40:19;;;;;;;1.10;0.30;;;17.40;72.50;;;;;;5033491;28;20068;-35
2022/09/21 11:42:58;;;;;;;1.90;0.20;;;17.40;69.40;;;;;;5034435;28;20589;-36
2022/09/21 11:45:38;;;;;;;2.83;0.60;;;17.50;69.20;;;;;;5035971;28;20123;-36
2022/09/21 11:48:31;;;;;;;2.17;0.30;;;17.60;67.10;;;;;;5032104;28;20038;-36
2022/09/21 11:50:57;;;;;;;;;;;17.70;68.10;;;;;;5033965;28;20048;-45
2022/09/21 11:53:33;;;;;;;2.22;0.30;;;17.90;64.90;;;;;;5032871;28;19963;-35
2022/09/21 11:56:20;;;;;;;4.05;0.50;;;18.10;67.30;;;;;;5030301;28;20050;-36
2022/09/21 11:58:56;;;;;;;3.78;0.20;;;18.20;63.50;;;;;;5036488;28;20123;-36
2022/09/21 12:02:03;;;;;;;4.20;0.50;;;18.10;61.20;;;;;;5038085;28;20513;-35
2022/09/21 12:04:53;;;;;;;2.70;0.30;;;18.20;62.20;;;;;;5028460;28;20052;-35
2022/09/21 12:07:36;;;;;;;4.25;0.50;;;18.40;61.90;;;;;;5034747;28;20037;-36
2022/09/21 12:10:14;;;;;;;2.78;0.40;;;18.40;59.20;;;;;;5031273;28;20037;-35
2022/09/21 12:13:17;;;;;;;4.65;0.40;;;18.60;61.90;;;;;;5034575;28;20495;-35
2022/09/21 12:15:48;;;;;;;3.42;0.40;;;18.90;58.20;;;;;;4972037;28;20136;-37
2022/09/21 12:18:46;;;;;;;2.00;0.32;;;19.30;60.00;;;;;;5033992;28;20461;-35
2022/09/21 12:21:35;;;;;;;3.70;0.50;;;19.70;54.90;;;;;;5033848;28;20184;-36
2022/09/21 12:24:21;;;;;;;2.35;0.40;;;19.90;54.50;;;;;;5036749;28;20103;-36
2022/09/21 12:26:54;;;;;;;2.83;0.30;;;20.10;52.00;;;;;;5033955;28;20059;-36
2022/09/21 12:29:52;;;;;;;;;;;20.60;52.30;;;;;;5041018;28;20057;-37
2022/09/21 12:32:46;;;;;;;4.45;0.45;;;21.00;51.60;;;;;;4988462;28;20390;-35
2022/09/21 12:35:40;;;;;;;3.28;0.30;;;21.10;51.50;;;;;;5036089;28;20506;-36
2022/09/21 12:38:25;;;;;;;3.08;0.40;;;21.40;49.80;;;;;;5038610;28;20088;-36
2022/09/21 12:40:55;;;;;;;2.33;0.32;;;21.30;49.50;;;;;;5048085;28;20049;-36
2022/09/21 12:43:45;;;;;;;3.95;0.50;;;20.90;49.60;;;;;;5032253;28;20037;-37
2022/09/21 12:46:20;;;;;;;2.90;0.30;;;20.30;51.00;;;;;;5034563;28;20053;-35
2022/09/21 12:48:46;;;;;;;1.10;0.30;;;19.90;52.90;;;;;;5033159;28;20116;-36
2022/09/21 12:51:24;;;;;;;2.28;0.30;;;19.60;53.80;;;;;;5039369;28;20502;-36
2022/09/21 12:53:56;;;;;;;1.60;0.30;;;19.30;54.20;;;;;;5044927;28;20041;-36
2022/09/21 12:56:35;;;;;;;2.75;0.28;;;19.10;54.70;;;;;;5038225;28;20398;-36
2022/09/21 12:59:07;;;;;;;4.03;0.45;;;19.10;55.00;;;;;;5034443;28;20128;-35
2022/09/21 13:02:11;;;;;;;2.05;0.30;;;19.00;55.60;;;;;;5037784;28;20502;-36
2022/09/21 13:05:12;;;;;;;0.85;0.20;;;18.80;55.90;;;;;;4958402;28;20487;-36
2022/09/21 13:07:56;;;;;;;1.42;0.20;;;18.50;52.90;;;;;;5036666;28;20075;-36
2022/09/21 13:10:41;;;;;;;2.80;0.60;;;18.30;56.20;;;;;;5035037;28;20049;-36
2022/09/21 13:13:29;;;;;;;0.80;0.20;;;18.00;56.50;;;;;;5035775;28;20040;-35
2022/09/21 13:15:58;;;;;;;1.52;0.25;;;17.90;57.00;;;;;;5031838;28;20498;-36
2022/09/21 13:18:33;;;;;;;2.03;0.40;;;17.70;58.50;;;;;;5041220;28;20047;-36
2022/09/21 13:21:20;;;;;;;1.27;0.28;;;17.80;59.00;;;;;;5043875;28;20069;-36
2022/09/21 13:24:00;;;;;;;0.63;0.13;;;17.90;59.10;;;;;;5035074;28;20102;-36
2022/09/21 13:26:41;;;;;;;2.20;0.30;;;18.70;57.70;;;;;;5036305;28;20052;-39